Nyk Orpheus — 7JDN — position and weather

sailwx.info

Track history (hours):
 
Tides and Currents Weather Stations Pressure Air Temp Water Temp Dewpoint Dewpoint Depression Visibility Wind Speed Wind Dir Waves Ship Positions

Nyk Orpheus

Last reported at 2016-May-03 15:30 UTC. Time now 2016-May-05 06:39 UTC.
Position N 31°56' W 080°39'.

Length 336 m; draft 11.6 m.

Type: Other ship. MMSI: 432657000.

Date/timePositionNaut miles runAvg speedWind from/ knotsBaromVisibWave heightAir tempDewpointWater temp
2016-May-03 15:30N 31°56' W 080°39'1010.6
2016-May-03 14:33N 32°02' W 080°49'1110.9
2016-May-03 13:33N 32°06' W 081°01'4 4.3
2016-May-03 12:33N 32°05' W 081°06'4 3.7
2016-May-03 11:33N 32°08' W 081°08'0 0.0
2016-May-03 10:33N 32°08' W 081°08'0 0.0
2016-May-03 09:33N 32°08' W 081°08'0 0.0
2016-May-03 08:33N 32°08' W 081°08'0 0.0
2016-May-03 07:33N 32°08' W 081°08'0 0.0
2016-May-03 06:33N 32°08' W 081°08'0 0.0
2016-May-03 05:33N 32°08' W 081°08'0 0.0
2016-May-03 04:33N 32°08' W 081°08'0 0.0
2016-May-03 03:33N 32°08' W 081°08'0 0.0
2016-May-03 02:33N 32°08' W 081°08'0 0.0
2016-May-03 01:33N 32°08' W 081°08'0 0.0
2016-May-03 00:33N 32°08' W 081°08'0 0.0
2016-May-02 23:30N 32°08' W 081°08'0 0.0
2016-May-02 22:33N 32°08' W 081°08'0 0.0
2016-May-02 21:33N 32°08' W 081°08'0 0.0
2016-May-02 20:33N 32°08' W 081°08'0 0.0
2016-May-02 19:33N 32°08' W 081°08'0 0.0
2016-May-02 18:33N 32°08' W 081°08'0 0.0
2016-May-02 17:33N 32°08' W 081°08'0 0.0
2016-May-02 16:30N 32°08' W 081°08'0 0.0
2016-May-02 15:33N 32°08' W 081°08'0 0.0
2016-May-02 14:33N 32°08' W 081°08'2 0.4
2016-May-02 08:33N 32°06' W 081°07'5 5.0
2016-May-02 07:33N 32°06' W 081°01'1111.3
2016-May-02 06:33N 32°01' W 080°49'9 9.1
2016-May-02 05:33N 31°57' W 080°39'8 7.9
2016-May-02 04:34N 31°58' W 080°30'10 9.6
2016-May-02 03:34N 32°00' W 080°19'1212.1
2016-May-02 02:32N 32°07' W 080°06'1312.3
2016-May-02 01:27N 32°15' W 079°54'1312.2
2016-May-02 00:23N 32°23' W 079°42'34 1.7
2016-May-01 04:17N 32°45' W 079°11'46817.4
2016-Apr-30 01:27N 39°18' W 073°56'1921.0
2016-Apr-30 00:33N 39°36' W 073°53'2020.4
2016-Apr-29 23:33N 39°57' W 073°51'2911.5
2016-Apr-29 21:04N 40°25' W 073°50'710.1
2016-Apr-29 20:20N 40°30' W 073°57'1012.9
2016-Apr-29 19:33N 40°39' W 074°03'2 1.7
2016-Apr-29 18:33N 40°40' W 074°05'0 0.0
2016-Apr-29 17:33N 40°40' W 074°05'0 0.0
2016-Apr-29 16:33N 40°40' W 074°05'0 0.0
2016-Apr-29 15:33N 40°40' W 074°05'0 0.0
2016-Apr-29 14:33N 40°40' W 074°05'0 0.0
2016-Apr-29 13:33N 40°40' W 074°05'0 0.0
2016-Apr-29 12:33N 40°40' W 074°05'0 0.0
2016-Apr-29 11:33N 40°40' W 074°05'0 0.0
2016-Apr-29 10:33N 40°40' W 074°05'0 0.0
2016-Apr-29 09:33N 40°40' W 074°05'0 0.0
2016-Apr-29 08:33N 40°40' W 074°05'0 0.0
2016-Apr-29 07:18N 40°40' W 074°05'0 0.0
2016-Apr-29 06:21N 40°40' W 074°05'0 0.0
2016-Apr-29 04:33N 40°40' W 074°05'0 0.0
2016-Apr-29 03:30N 40°40' W 074°05'0 0.0
2016-Apr-29 02:18N 40°40' W 074°05'0 0.0
2016-Apr-28 22:24N 40°40' W 074°05'0 0.0
2016-Apr-28 21:33N 40°40' W 074°05'0 0.0
2016-Apr-28 18:30N 40°40' W 074°05'0 0.0
2016-Apr-28 17:33N 40°40' W 074°05'0 0.0
2016-Apr-28 16:33N 40°40' W 074°05'0 0.0
2016-Apr-28 13:33N 40°40' W 074°05'0 0.0
2016-Apr-28 12:18N 40°40' W 074°05'0 0.0
2016-Apr-28 11:33N 40°40' W 074°05'0 0.0
2016-Apr-28 10:33N 40°40' W 074°05'0 0.0
2016-Apr-28 09:33N 40°40' W 074°05'0 0.0
2016-Apr-28 08:21N 40°40' W 074°05'0 0.0
2016-Apr-28 07:33N 40°40' W 074°05'0 0.0
2016-Apr-28 06:33N 40°40' W 074°05'0 0.0
2016-Apr-28 05:33N 40°40' W 074°05'0 0.0
2016-Apr-28 04:33N 40°40' W 074°05'0 0.0
2016-Apr-28 03:33N 40°40' W 074°05'0 0.0
2016-Apr-28 02:33N 40°40' W 074°05'0 0.0
2016-Apr-28 01:33N 40°40' W 074°05'0 0.0
2016-Apr-28 00:33N 40°40' W 074°05'0 0.0
2016-Apr-27 23:33N 40°40' W 074°05'0 0.0
2016-Apr-27 22:33N 40°40' W 074°05'0 0.0
2016-Apr-27 21:33N 40°40' W 074°05'0 0.0
2016-Apr-27 20:33N 40°40' W 074°05'0 0.0
2016-Apr-27 19:33N 40°40' W 074°05'0 0.0
2016-Apr-27 18:33N 40°40' W 074°05'0 0.0
2016-Apr-27 17:33N 40°40' W 074°05'0 0.0
2016-Apr-27 16:33N 40°40' W 074°05'2 1.6
2016-Apr-27 15:33N 40°39' W 074°03'9 9.3
2016-Apr-27 14:33N 40°31' W 073°58'  
Track history (hours):
 
Tides and Currents Weather Stations Pressure Air Temp Water Temp Dewpoint Dewpoint Depression Visibility Wind Speed Wind Dir Waves Ship Positions

Nyk Orpheus

Last reported at 2016-May-03 15:30 UTC. Time now 2016-May-05 06:39 UTC.
Position N 31°56' W 080°39'.

Length 336 m; draft 11.6 m.

Type: Other ship. MMSI: 432657000.

Date/timePositionNaut miles runAvg speedWind from/ knotsBaromVisibWave heightAir tempDewpointWater temp
2016-May-03 15:30N 31°56' W 080°39'1010.6
2016-May-03 14:33N 32°02' W 080°49'1110.9
2016-May-03 13:33N 32°06' W 081°01'4 4.3
2016-May-03 12:33N 32°05' W 081°06'4 3.7
2016-May-03 11:33N 32°08' W 081°08'0 0.0
2016-May-03 10:33N 32°08' W 081°08'0 0.0
2016-May-03 09:33N 32°08' W 081°08'0 0.0
2016-May-03 08:33N 32°08' W 081°08'0 0.0
2016-May-03 07:33N 32°08' W 081°08'0 0.0
2016-May-03 06:33N 32°08' W 081°08'0 0.0
2016-May-03 05:33N 32°08' W 081°08'0 0.0
2016-May-03 04:33N 32°08' W 081°08'0 0.0
2016-May-03 03:33N 32°08' W 081°08'0 0.0
2016-May-03 02:33N 32°08' W 081°08'0 0.0
2016-May-03 01:33N 32°08' W 081°08'0 0.0
2016-May-03 00:33N 32°08' W 081°08'0 0.0
2016-May-02 23:30N 32°08' W 081°08'0 0.0
2016-May-02 22:33N 32°08' W 081°08'0 0.0
2016-May-02 21:33N 32°08' W 081°08'0 0.0
2016-May-02 20:33N 32°08' W 081°08'0 0.0
2016-May-02 19:33N 32°08' W 081°08'0 0.0
2016-May-02 18:33N 32°08' W 081°08'0 0.0
2016-May-02 17:33N 32°08' W 081°08'0 0.0
2016-May-02 16:30N 32°08' W 081°08'0 0.0
2016-May-02 15:33N 32°08' W 081°08'0 0.0
2016-May-02 14:33N 32°08' W 081°08'2 0.4
2016-May-02 08:33N 32°06' W 081°07'5 5.0
2016-May-02 07:33N 32°06' W 081°01'1111.3
2016-May-02 06:33N 32°01' W 080°49'9 9.1
2016-May-02 05:33N 31°57' W 080°39'8 7.9
2016-May-02 04:34N 31°58' W 080°30'10 9.6
2016-May-02 03:34N 32°00' W 080°19'1212.1
2016-May-02 02:32N 32°07' W 080°06'1312.3
2016-May-02 01:27N 32°15' W 079°54'1312.2
2016-May-02 00:23N 32°23' W 079°42'34 1.7
2016-May-01 04:17N 32°45' W 079°11'46817.4
2016-Apr-30 01:27N 39°18' W 073°56'1921.0
2016-Apr-30 00:33N 39°36' W 073°53'2020.4
2016-Apr-29 23:33N 39°57' W 073°51'2911.5
2016-Apr-29 21:04N 40°25' W 073°50'710.1
2016-Apr-29 20:20N 40°30' W 073°57'1012.9
2016-Apr-29 19:33N 40°39' W 074°03'2 1.7
2016-Apr-29 18:33N 40°40' W 074°05'0 0.0
2016-Apr-29 17:33N 40°40' W 074°05'0 0.0
2016-Apr-29 16:33N 40°40' W 074°05'0 0.0
2016-Apr-29 15:33N 40°40' W 074°05'0 0.0
2016-Apr-29 14:33N 40°40' W 074°05'0 0.0
2016-Apr-29 13:33N 40°40' W 074°05'0 0.0
2016-Apr-29 12:33N 40°40' W 074°05'0 0.0
2016-Apr-29 11:33N 40°40' W 074°05'0 0.0
2016-Apr-29 10:33N 40°40' W 074°05'0 0.0
2016-Apr-29 09:33N 40°40' W 074°05'0 0.0
2016-Apr-29 08:33N 40°40' W 074°05'0 0.0
2016-Apr-29 07:18N 40°40' W 074°05'0 0.0
2016-Apr-29 06:21N 40°40' W 074°05'0 0.0
2016-Apr-29 04:33N 40°40' W 074°05'0 0.0
2016-Apr-29 03:30N 40°40' W 074°05'0 0.0
2016-Apr-29 02:18N 40°40' W 074°05'0 0.0
2016-Apr-28 22:24N 40°40' W 074°05'0 0.0
2016-Apr-28 21:33N 40°40' W 074°05'0 0.0
2016-Apr-28 18:30N 40°40' W 074°05'0 0.0
2016-Apr-28 17:33N 40°40' W 074°05'0 0.0
2016-Apr-28 16:33N 40°40' W 074°05'0 0.0
2016-Apr-28 13:33N 40°40' W 074°05'0 0.0
2016-Apr-28 12:18N 40°40' W 074°05'0 0.0
2016-Apr-28 11:33N 40°40' W 074°05'0 0.0
2016-Apr-28 10:33N 40°40' W 074°05'0 0.0
2016-Apr-28 09:33N 40°40' W 074°05'0 0.0
2016-Apr-28 08:21N 40°40' W 074°05'0 0.0
2016-Apr-28 07:33N 40°40' W 074°05'0 0.0
2016-Apr-28 06:33N 40°40' W 074°05'0 0.0
2016-Apr-28 05:33N 40°40' W 074°05'0 0.0
2016-Apr-28 04:33N 40°40' W 074°05'0 0.0
2016-Apr-28 03:33N 40°40' W 074°05'0 0.0
2016-Apr-28 02:33N 40°40' W 074°05'0 0.0
2016-Apr-28 01:33N 40°40' W 074°05'0 0.0
2016-Apr-28 00:33N 40°40' W 074°05'0 0.0
2016-Apr-27 23:33N 40°40' W 074°05'0 0.0
2016-Apr-27 22:33N 40°40' W 074°05'0 0.0
2016-Apr-27 21:33N 40°40' W 074°05'0 0.0
2016-Apr-27 20:33N 40°40' W 074°05'0 0.0
2016-Apr-27 19:33N 40°40' W 074°05'0 0.0
2016-Apr-27 18:33N 40°40' W 074°05'0 0.0
2016-Apr-27 17:33N 40°40' W 074°05'0 0.0
2016-Apr-27 16:33N 40°40' W 074°05'2 1.6
2016-Apr-27 15:33N 40°39' W 074°03'9 9.3
2016-Apr-27 14:33N 40°31' W 073°58'  

Dump ship's entire track history